Stewartsville, Indiana
Current Conditions -  °F | °C
As of 6:55 AM on Friday 28 Nov 2014 (Local Time) from KCUL Reporting Station
Clear Clear  
Wind Chill: 21°   Ceiling: Unl
Heat Index: 28°   Visibility: 7mi
Dew Point: 28°   Wind: 7mph
Humidity: 99%   Direction: 280°W
Pressure: 30.39"   Gusts: NA
Location:  38.1775°N, 87.8268°W
Report Text: KCUL 281255Z AUTO 28006KT 7SM CLR M02/M02 A3039 RMK AO2 T10231025
Loading
Personal Weather Stations






























Interactive Weather Map New forecast layout! Learn more

10-Day Weather Forecast

Advertisements
Track Severe Weather on mobile